Time;durP1;ratioP1;P1;durP2;ratioP2;P2;SDS_P1;SDS_P2;PMS_P1;PMS_P2;Temp;Humidity;BMP_temperature;BMP_pressure;BME280_temperature;BME280_humidity;BME280_pressure;Samples;Min_cycle;Max_cycle;Signal;HPM_P1;HPM_P2
2022/12/31 00:00:17;;;;;;;3.80;3.17;;;;;;;-143.84;50.29;45127.13;5094551;28;20441;-85
2022/12/31 00:02:44;;;;;;;3.60;3.30;;;;;;;-143.84;50.09;45110.00;5094401;28;20446;-85
2022/12/31 00:05:12;;;;;;;4.43;3.90;;;;;;;-143.84;50.09;45108.09;5094440;28;20466;-86
2022/12/31 00:07:39;;;;;;;5.13;3.47;;;;;;;-143.84;50.13;45129.03;5094342;27;20438;-86
2022/12/31 00:10:08;;;;;;;3.80;3.50;;;;;;;-143.84;49.93;45123.34;5094379;28;20439;-86
2022/12/31 00:12:36;;;;;;;5.57;3.97;;;;;;;-143.84;49.88;45125.22;5094024;28;20487;-86
2022/12/31 00:15:04;;;;;;;5.03;4.50;;;;;;;-143.84;49.83;45117.63;5094306;28;20492;-86
2022/12/31 00:17:31;;;;;;;4.00;3.60;;;;;;;-143.84;49.58;45138.56;5094331;28;20429;-86
2022/12/31 00:19:58;;;;;;;3.77;3.40;;;;;;;-143.84;49.62;45094.78;5094151;28;20515;-86
2022/12/31 00:22:25;;;;;;;3.13;2.93;;;;;;;-143.84;49.46;45148.09;5094404;28;20426;-86
2022/12/31 00:24:52;;;;;;;2.90;2.70;;;;;;;-143.84;49.02;45125.22;5093969;28;20523;-86
2022/12/31 00:27:21;;;;;;;3.27;3.07;;;;;;;-143.84;49.21;45155.69;5094084;28;20500;-86
2022/12/31 00:29:49;;;;;;;3.80;2.57;;;;;;;-143.84;49.08;45169.03;5094400;28;20434;-85
2022/12/31 00:32:17;;;;;;;3.80;3.50;;;;;;;-143.84;48.98;45090.97;5099151;28;20476;-85
2022/12/31 00:34:44;;;;;;;2.73;2.53;;;;;;;-143.84;48.67;45132.84;5096866;28;20426;-85
2022/12/31 00:37:11;;;;;;;3.50;3.10;;;;;;;-143.84;48.83;45123.34;5094604;28;20490;-86
2022/12/31 00:39:38;;;;;;;3.63;3.30;;;;;;;-143.84;48.66;45127.13;5097168;28;21004;-86
2022/12/31 00:42:05;;;;;;;4.93;2.93;;;;;;;-143.84;48.52;45132.84;5097883;28;20432;-86
2022/12/31 00:44:32;;;;;;;3.03;2.83;;;;;;;-143.84;48.20;45111.91;5096129;28;20537;-87
2022/12/31 00:47:01;;;;;;;3.30;3.10;;;;;;;-143.84;47.99;45132.84;5096988;28;20415;-86
2022/12/31 00:49:28;;;;;;;3.80;2.57;;;;;;;-143.84;47.98;45170.94;5098553;28;20526;-86
2022/12/31 00:51:55;;;;;;;3.33;3.03;;;;;;;-143.84;48.15;45125.22;5098618;28;20429;-86
2022/12/31 00:54:22;;;;;;;3.20;2.90;;;;;;;-143.84;48.18;45129.03;5097976;28;20454;-86
2022/12/31 00:56:49;;;;;;;2.80;2.60;;;;;;;-143.84;48.19;45113.81;5096999;28;20504;-86
2022/12/31 00:59:16;;;;;;;4.83;3.30;;;;;;;-143.84;48.34;45129.03;5093848;28;20487;-86
2022/12/31 01:01:46;;;;;;;3.57;3.27;;;;;;;-143.84;48.08;45129.03;5093844;28;21240;-86
2022/12/31 01:04:18;;;;;;;4.80;3.60;;;;;;;-143.84;48.28;45136.66;5093282;28;21059;-84
2022/12/31 01:06:46;;;;;;;3.20;3.00;;;;;;;-143.84;47.68;45106.19;5092968;28;20449;-84
2022/12/31 01:09:15;;;;;;;5.30;3.13;;;;;;;-143.84;48.16;45140.47;5092955;28;20449;-84
2022/12/31 01:11:43;;;;;;;3.97;2.60;;;;;;;-143.84;47.95;45127.13;5092877;28;20500;-84
2022/12/31 01:14:13;;;;;;;2.60;2.40;;;;;;;-143.84;47.98;45125.22;5092928;28;20433;-84
2022/12/31 01:16:42;;;;;;;4.13;2.63;;;;;;;-143.84;47.93;45125.22;5092697;28;20477;-84
2022/12/31 01:19:11;;;;;;;3.10;2.90;;;;;;;-143.84;47.96;45098.56;5092768;28;20433;-84
2022/12/31 01:21:41;;;;;;;3.07;2.70;;;;;;;-143.84;47.81;45092.88;5093011;28;20431;-84
2022/12/31 01:24:09;;;;;;;2.97;2.67;;;;;;;-143.84;47.74;45136.66;5092876;28;21315;-84
2022/12/31 01:26:37;;;;;;;3.40;3.10;;;;;;;-143.84;47.60;45123.34;5092700;28;20508;-84
2022/12/31 01:29:05;;;;;;;3.27;2.70;;;;;;;-143.84;47.35;45138.56;5092609;28;20449;-84
2022/12/31 01:31:34;;;;;;;3.33;3.13;;;;;;;-143.84;47.79;45104.28;5091989;28;20580;-84
2022/12/31 01:34:02;;;;;;;4.30;2.63;;;;;;;-143.84;47.87;45127.13;5090526;28;20446;-84
2022/12/31 01:36:31;;;;;;;3.40;3.20;;;;;;;-143.84;47.92;45140.47;5091899;28;20448;-84
2022/12/31 01:39:01;;;;;;;3.10;2.90;;;;;;;-143.84;48.13;45115.72;5092974;28;20440;-84
2022/12/31 01:41:30;;;;;;;3.20;2.80;;;;;;;-143.84;47.88;45132.84;5092805;28;20489;-84
2022/12/31 01:43:59;;;;;;;6.93;3.40;;;;;;;-143.84;47.77;45119.53;5092306;28;20483;-84
2022/12/31 01:46:33;;;;;;;3.43;3.17;;;;;;;-143.84;47.94;45117.63;5092725;28;20438;-84
2022/12/31 01:49:04;;;;;;;3.70;3.40;;;;;;;-143.84;47.90;45102.38;5092328;28;20518;-84
2022/12/31 01:51:34;;;;;;;6.40;3.30;;;;;;;-143.84;47.75;45146.19;5092469;28;20484;-83
2022/12/31 01:54:05;;;;;;;3.60;3.30;;;;;;;-143.84;47.89;45125.22;5092507;28;20544;-84
2022/12/31 01:56:34;;;;;;;3.40;3.10;;;;;;;-143.84;47.97;45127.13;5092467;28;20432;-83
2022/12/31 01:59:08;;;;;;;3.40;3.07;;;;;;;-143.84;47.92;45136.66;5090681;28;20483;-84
2022/12/31 02:01:37;;;;;;;3.40;3.10;;;;;;;-143.84;47.89;45119.53;5092312;28;20490;-83
2022/12/31 02:04:07;;;;;;;3.40;3.10;;;;;;;-143.84;48.31;45121.44;5092644;28;20986;-83
2022/12/31 02:06:39;;;;;;;4.00;3.60;;;;;;;-143.84;48.94;45110.00;5092517;28;20501;-83
2022/12/31 02:09:08;;;;;;;8.73;3.70;;;;;;;-143.84;49.04;45104.28;5092194;28;20423;-83
2022/12/31 02:11:36;;;;;;;4.23;3.40;;;;;;;-143.84;48.72;45144.28;5092354;28;21018;-83
2022/12/31 02:14:08;;;;;;;4.33;3.83;;;;;;;-143.84;49.02;45110.00;5092032;28;20436;-84
2022/12/31 02:16:44;;;;;;;5.70;3.90;;;;;;;-143.84;48.53;45150.00;5091855;28;20476;-83
2022/12/31 02:19:41;;;;;;;3.33;3.00;;;;;;;-143.84;48.85;45127.13;5090570;28;20435;-83
2022/12/31 02:22:22;;;;;;;3.60;3.30;;;;;;;-143.84;48.45;45129.03;5090544;28;20450;-83
2022/12/31 02:25:24;;;;;;;5.40;3.73;;;;;;;-143.84;48.10;45140.47;5091794;28;20488;-83
2022/12/31 02:28:03;;;;;;;3.43;3.17;;;;;;;-143.84;48.39;45121.44;5092065;28;20418;-83
2022/12/31 02:30:33;;;;;;;3.67;3.30;;;;;;;-143.84;48.83;45115.72;5091889;28;20492;-83
2022/12/31 02:33:12;;;;;;;6.10;3.60;;;;;;;-143.84;48.83;45136.66;5092273;28;20442;-83
2022/12/31 02:35:46;;;;;;;4.20;3.30;;;;;;;-143.84;48.65;45119.53;5092145;28;20424;-83
2022/12/31 02:38:18;;;;;;;3.70;3.20;;;;;;;-143.84;48.51;45115.72;5091865;28;20444;-83
2022/12/31 02:40:47;;;;;;;3.27;2.93;;;;;;;-143.84;48.67;45125.22;5092067;28;20434;-86
2022/12/31 02:43:14;;;;;;;3.70;3.40;;;;;;;-143.84;48.96;45136.66;5093519;28;20474;-86
2022/12/31 02:45:46;;;;;;;4.43;3.70;;;;;;;-143.84;49.27;45121.44;5092568;28;20478;-83
2022/12/31 02:48:45;;;;;;;3.93;3.43;;;;;;;-143.84;49.39;45121.44;5091722;28;20778;-82
2022/12/31 02:51:26;;;;;;;3.23;2.93;;;;;;;-143.84;49.21;45140.47;5057800;28;21148;-83
2022/12/31 02:54:09;;;;;;;4.10;3.80;;;;;;;-143.84;49.45;45140.47;5091706;28;20928;-82
2022/12/31 02:56:45;;;;;;;8.20;3.77;;;;;;;-143.84;49.40;45115.72;5091938;28;20421;-83
2022/12/31 03:02:15;;;;;;;3.80;3.50;;;;;;;-143.84;49.66;45113.81;5094386;28;20416;-83
2022/12/31 03:04:46;;;;;;;3.70;3.03;;;;;;;-143.84;49.27;45151.91;5095620;28;20476;-84
2022/12/31 03:07:18;;;;;;;3.83;3.33;;;;;;;-143.84;49.46;45148.09;5095656;28;20446;-84
2022/12/31 03:09:45;;;;;;;3.53;3.30;;;;;;;-143.84;49.53;45132.84;5095369;28;20490;-84
2022/12/31 03:14:59;;;;;;;3.13;2.80;;;;;;;-143.84;49.39;45140.47;5095283;28;20426;-84
2022/12/31 03:17:28;;;;;;;3.70;3.30;;;;;;;-143.84;49.50;45113.81;5095080;28;20433;-83
2022/12/31 03:22:42;;;;;;;3.47;3.17;;;;;;;-143.84;49.47;45094.78;5095164;28;20414;-83
2022/12/31 03:27:56;;;;;;;4.40;4.00;;;;;;;-143.84;48.79;45123.34;5095058;28;20418;-84
2022/12/31 03:30:25;;;;;;;4.40;3.40;;;;;;;-143.84;48.85;45125.22;5094846;28;20445;-83
2022/12/31 03:32:55;;;;;;;3.90;3.60;;;;;;;-143.84;49.37;45132.84;5094778;28;20437;-84
2022/12/31 03:35:23;;;;;;;5.00;2.97;;;;;;;-143.84;48.98;45123.34;5094726;28;20936;-83
2022/12/31 03:37:51;;;;;;;4.43;3.30;;;;;;;-143.84;48.77;45127.13;5095032;28;20427;-83
2022/12/31 03:40:19;;;;;;;4.20;3.80;;;;;;;-143.84;48.94;45102.38;5094716;28;20437;-84
2022/12/31 03:42:46;;;;;;;5.47;3.73;;;;;;;-143.84;48.88;45129.03;5094847;28;20435;-84
2022/12/31 03:45:15;;;;;;;5.43;3.27;;;;;;;-143.84;48.93;45136.66;5094554;28;20466;-84
2022/12/31 03:47:43;;;;;;;9.33;2.80;;;;;;;-143.84;48.56;45157.59;5093768;28;20425;-84
2022/12/31 03:50:13;;;;;;;3.73;2.90;;;;;;;-143.84;48.61;45136.66;5095241;28;20438;-85
2022/12/31 03:52:40;;;;;;;3.57;3.30;;;;;;;-143.84;48.75;45144.28;5095099;28;20449;-84
2022/12/31 03:55:09;;;;;;;5.87;3.10;;;;;;;-143.84;48.37;45140.47;5094435;28;20428;-83
2022/12/31 03:57:37;;;;;;;4.60;4.20;;;;;;;-143.84;48.28;45117.63;5094134;28;20544;-84
2022/12/31 04:00:06;;;;;;;9.10;6.67;;;;;;;-143.84;48.11;45132.84;5094608;28;20488;-84
2022/12/31 04:02:33;;;;;;;5.23;4.83;;;;;;;-143.84;48.51;45146.19;5094615;28;20492;-84
2022/12/31 04:05:01;;;;;;;3.37;3.17;;;;;;;-143.84;48.29;45130.94;5094158;28;20470;-84
2022/12/31 04:07:29;;;;;;;3.50;3.13;;;;;;;-143.84;48.53;45132.84;5094469;28;20452;-86
2022/12/31 04:09:57;;;;;;;5.93;3.40;;;;;;;-143.84;48.63;45125.22;5094361;28;20479;-86
2022/12/31 04:12:25;;;;;;;3.33;3.13;;;;;;;-143.84;48.54;45132.84;5093906;28;20555;-86
2022/12/31 04:14:52;;;;;;;3.03;2.73;;;;;;;-143.84;48.52;45115.72;5094340;28;20832;-84
2022/12/31 04:17:19;;;;;;;3.87;3.50;;;;;;;-143.84;48.57;45111.91;5093948;28;20635;-84
2022/12/31 04:19:46;;;;;;;4.23;3.33;;;;;;;-143.84;48.48;45127.13;5094203;28;20461;-84
2022/12/31 04:22:13;;;;;;;4.17;3.77;;;;;;;-143.84;48.46;45113.81;5094173;28;20438;-84
2022/12/31 04:24:42;;;;;;;4.57;4.07;;;;;;;-143.84;48.39;45150.00;5093597;28;20468;-84
2022/12/31 04:27:09;;;;;;;9.20;5.30;;;;;;;-143.84;48.23;45150.00;5094115;28;20467;-84
2022/12/31 04:29:37;;;;;;;7.50;5.00;;;;;;;-143.84;48.36;45132.84;5093978;28;20465;-83
2022/12/31 04:32:06;;;;;;;6.77;3.60;;;;;;;-143.84;48.40;45127.13;5093898;28;20431;-84
2022/12/31 04:34:34;;;;;;;6.90;4.20;;;;;;;-143.84;48.33;45142.38;5093945;28;20430;-84
2022/12/31 04:37:01;;;;;;;6.10;3.83;;;;;;;-143.84;48.32;45104.28;5093363;28;20445;-84
2022/12/31 04:39:28;;;;;;;4.83;3.93;;;;;;;-143.84;48.07;45132.84;5093695;28;20423;-83
2022/12/31 04:41:57;;;;;;;6.60;5.37;;;;;;;-143.84;48.19;45115.72;5091775;28;20435;-83
2022/12/31 04:44:24;;;;;;;11.83;4.87;;;;;;;-143.84;47.86;45129.03;5091849;28;21001;-84
2022/12/31 04:46:51;;;;;;;5.70;4.77;;;;;;;-143.84;48.03;45127.13;5093841;28;20479;-84
2022/12/31 04:49:19;;;;;;;6.60;5.53;;;;;;;-143.84;48.08;45098.56;5093477;28;20443;-83
2022/12/31 04:51:46;;;;;;;6.67;4.57;;;;;;;-143.84;47.69;45111.91;5093842;28;20496;-84
2022/12/31 04:54:14;;;;;;;6.57;5.03;;;;;;;-143.84;47.47;45119.53;5093591;28;20487;-84
2022/12/31 04:56:41;;;;;;;4.00;3.70;;;;;;;-143.84;47.09;45132.84;5093433;28;20435;-84
2022/12/31 04:59:10;;;;;;;6.43;3.60;;;;;;;-143.84;47.38;45123.34;5092906;28;20871;-84
2022/12/31 05:01:38;;;;;;;5.63;4.37;;;;;;;-143.84;47.34;45129.03;5093155;28;20618;-84
2022/12/31 05:04:05;;;;;;;4.20;3.80;;;;;;;-143.84;47.22;45106.19;5092961;28;20438;-84
2022/12/31 05:06:33;;;;;;;3.80;3.50;;;;;;;-143.84;47.34;45115.72;5092955;28;20842;-84
2022/12/31 05:09:00;;;;;;;4.30;4.00;;;;;;;-143.84;47.25;45111.91;5092928;28;20445;-84
2022/12/31 05:11:27;;;;;;;3.60;3.30;;;;;;;-143.84;47.30;45125.22;5093281;28;20423;-84
2022/12/31 05:14:06;;;;;;;6.17;4.10;;;;;;;-143.84;47.15;45125.22;5093345;28;20427;-85
2022/12/31 05:16:35;;;;;;;9.10;4.47;;;;;;;-143.84;47.32;45146.19;5092908;28;20431;-83
2022/12/31 05:19:05;;;;;;;6.03;4.13;;;;;;;-143.84;47.65;45104.28;5092775;28;20503;-84
2022/12/31 05:21:32;;;;;;;5.43;4.43;;;;;;;-143.84;47.67;45134.75;5092996;28;20817;-84
2022/12/31 05:23:59;;;;;;;5.30;4.57;;;;;;;-143.84;47.65;45144.28;5092154;28;20438;-84
2022/12/31 05:26:26;;;;;;;5.57;4.90;;;;;;;-143.84;47.91;45121.44;5092628;28;20471;-84
2022/12/31 05:28:54;;;;;;;6.53;5.83;;;;;;;-143.84;47.90;45138.56;5092872;28;20440;-84
2022/12/31 05:31:21;;;;;;;5.80;5.30;;;;;;;-143.84;48.08;45119.53;5092801;28;20438;-83
2022/12/31 05:33:50;;;;;;;4.80;4.40;;;;;;;-143.84;48.45;45104.28;5092533;28;20492;-83
2022/12/31 05:36:17;;;;;;;4.67;4.27;;;;;;;-143.84;48.77;45129.03;5092550;28;20446;-84
2022/12/31 05:38:44;;;;;;;5.80;4.10;;;;;;;-143.84;48.93;45111.91;5092543;28;20482;-84
2022/12/31 05:41:11;;;;;;;3.87;3.53;;;;;;;-143.84;48.88;45121.44;5092385;28;20505;-84
2022/12/31 05:43:39;;;;;;;4.27;3.63;;;;;;;-143.84;49.28;45130.94;5092658;28;20806;-84
2022/12/31 05:46:08;;;;;;;4.70;4.07;;;;;;;-143.84;49.28;45119.53;5091459;28;20536;-84
2022/12/31 05:48:35;;;;;;;4.00;3.70;;;;;;;-143.84;49.54;45111.91;5092307;28;20525;-83
2022/12/31 05:51:04;;;;;;;4.27;3.87;;;;;;;-143.84;49.89;45144.28;5092412;28;20469;-84
2022/12/31 05:53:40;;;;;;;6.00;3.70;;;;;;;-143.84;50.12;45123.34;5091223;28;20415;-84
2022/12/31 05:56:07;;;;;;;4.27;3.87;;;;;;;-143.84;50.30;45123.34;5092691;28;20426;-83
2022/12/31 05:58:34;;;;;;;4.80;3.50;;;;;;;-143.84;50.65;45140.47;5092233;28;20535;-84
2022/12/31 06:01:02;;;;;;;4.23;3.33;;;;;;;-143.84;50.32;45136.66;5092541;28;20446;-85
2022/12/31 06:03:29;;;;;;;4.27;3.97;;;;;;;-143.84;49.95;45129.03;5092633;28;20430;-84
2022/12/31 06:05:56;;;;;;;4.73;4.33;;;;;;;-143.84;49.51;45134.75;5092174;28;20466;-84
2022/12/31 06:08:24;;;;;;;4.10;3.50;;;;;;;-143.84;49.76;45134.75;5092055;28;20950;-84
2022/12/31 06:10:51;;;;;;;5.30;3.67;;;;;;;-143.84;50.23;45123.34;5092060;28;20484;-84
2022/12/31 06:13:19;;;;;;;3.80;3.50;;;;;;;-143.84;50.42;45119.53;5092132;28;20942;-84
2022/12/31 06:15:46;;;;;;;4.20;3.80;;;;;;;-143.84;50.04;45123.34;5092358;28;20495;-84
2022/12/31 06:18:13;;;;;;;4.60;3.97;;;;;;;-143.84;49.29;45115.72;5092044;28;20929;-84
2022/12/31 06:20:40;;;;;;;5.70;4.00;;;;;;;-143.84;50.15;45140.47;5092214;28;20434;-84
2022/12/31 06:23:07;;;;;;;4.70;3.57;;;;;;;-143.84;49.74;45136.66;5091850;28;20492;-84
2022/12/31 06:25:37;;;;;;;4.07;3.60;;;;;;;-143.84;49.46;45102.38;5092182;28;20844;-85
2022/12/31 06:28:04;;;;;;;3.80;3.50;;;;;;;-143.84;47.94;45129.03;5092266;28;20462;-84
2022/12/31 06:30:32;;;;;;;8.17;4.30;;;;;;;-143.84;48.00;45110.00;5091842;28;20989;-84
2022/12/31 06:32:59;;;;;;;6.20;4.17;;;;;;;-143.84;47.73;45096.66;5092342;28;20461;-86
2022/12/31 06:35:26;;;;;;;9.03;4.10;;;;;;;-143.84;47.75;45110.00;5094004;28;21034;-85
2022/12/31 06:37:53;;;;;;;4.50;4.10;;;;;;;-143.84;47.16;45144.28;5096399;28;20448;-85
2022/12/31 06:40:20;;;;;;;3.70;3.40;;;;;;;-143.84;47.97;45142.38;5096203;28;20435;-84
2022/12/31 06:42:49;;;;;;;4.20;3.90;;;;;;;-143.84;47.52;45125.22;5096124;28;20432;-85
2022/12/31 06:45:17;;;;;;;4.40;4.00;;;;;;;-143.84;48.65;45130.94;5095611;28;20495;-83
2022/12/31 06:47:44;;;;;;;5.23;4.37;;;;;;;-143.84;48.13;45111.91;5095991;28;20882;-82
2022/12/31 06:50:11;;;;;;;5.43;4.83;;;;;;;-143.84;47.81;45102.38;5095534;28;20442;-82
2022/12/31 06:52:38;;;;;;;8.73;5.33;;;;;;;-143.84;48.05;45115.72;5098171;28;20921;-84
2022/12/31 06:55:06;;;;;;;6.60;5.90;;;;;;;-143.84;48.78;45087.16;5097019;28;21002;-83
2022/12/31 06:57:35;;;;;;;7.20;4.60;;;;;;;-143.84;47.77;45110.00;5095542;28;20471;-83
2022/12/31 07:00:05;;;;;;;11.60;7.37;;;;;;;-143.84;46.17;45108.09;5095445;28;20442;-82
2022/12/31 07:03:00;;;;;;;7.93;6.30;;;;;;;-143.84;45.67;45129.03;5095499;28;21044;-81
2022/12/31 07:05:34;;;;;;;15.60;6.40;;;;;;;-143.84;45.75;45155.69;5094845;28;20427;-82
2022/12/31 07:08:18;;;;;;;8.10;7.00;;;;;;;-143.84;46.03;45106.19;5095477;28;20466;-83
2022/12/31 07:10:53;;;;;;;11.77;7.10;;;;;;;-143.84;46.15;45132.84;5094312;28;20439;-83
2022/12/31 07:13:40;;;;;;;15.00;9.83;;;;;;;-143.84;46.91;45119.53;5092641;28;20485;-84
2022/12/31 07:16:21;;;;;;;10.60;7.63;;;;;;;-143.84;46.21;45117.63;5094897;28;20436;-83
2022/12/31 07:18:55;;;;;;;13.07;10.63;;;;;;;-143.84;45.92;45070.00;5098388;28;20423;-83
2022/12/31 07:21:32;;;;;;;12.47;10.43;;;;;;;-143.84;44.90;45094.78;5098071;28;20435;-84
2022/12/31 07:24:00;;;;;;;12.93;9.13;;;;;;;-143.84;44.45;45104.28;5098687;28;20956;-83
2022/12/31 07:26:51;;;;;;;18.00;10.17;;;;;;;-143.84;43.84;45106.19;5100560;28;20531;-82
2022/12/31 07:29:25;;;;;;;23.23;10.60;;;;;;;-143.84;44.52;45108.09;5099525;28;20431;-83
2022/12/31 07:32:05;;;;;;;16.60;10.93;;;;;;;-143.84;44.35;45085.25;5099251;28;20424;-83
2022/12/31 07:34:41;;;;;;;19.40;10.90;;;;;;;-143.84;43.65;45129.03;5099121;28;20439;-83
2022/12/31 07:37:15;;;;;;;21.23;8.83;;;;;;;-143.84;42.96;45108.09;5098404;28;20415;-83
2022/12/31 07:39:54;;;;;;;9.00;6.83;;;;;;;-143.84;42.03;45092.88;5098259;28;20488;-83
2022/12/31 07:42:27;;;;;;;5.93;5.33;;;;;;;-143.84;41.37;45106.19;5098811;28;20518;-83
2022/12/31 07:45:03;;;;;;;7.90;4.70;;;;;;;-143.84;41.04;45106.19;5096989;28;20424;-83
2022/12/31 07:47:32;;;;;;;3.87;3.57;;;;;;;-143.84;40.43;45075.72;5095669;28;20517;-82
2022/12/31 07:50:00;;;;;;;3.00;2.80;;;;;;;-143.84;38.92;45079.53;5094524;28;20501;-82
2022/12/31 07:52:28;;;;;;;3.20;2.90;;;;;;;-143.84;39.13;45083.34;5094764;28;20469;-82
2022/12/31 07:54:55;;;;;;;3.30;3.00;;;;;;;-143.84;38.44;45071.91;5095082;28;20423;-82
2022/12/31 07:57:29;;;;;;;4.13;2.50;;;;;;;-143.84;38.16;45094.78;5094653;28;20533;-82
2022/12/31 08:00:07;;;;;;;5.20;3.00;;;;;;;-143.84;37.90;45050.97;5094748;28;20955;-82
2022/12/31 08:02:57;;;;;;;5.30;3.60;;;;;;;-143.84;37.11;45066.22;5094967;28;20478;-82
2022/12/31 08:05:32;;;;;;;3.87;3.20;;;;;;;-143.84;37.35;45083.34;5094844;28;20428;-82
2022/12/31 08:08:11;;;;;;;6.10;3.60;;;;;;;-143.84;37.53;45050.97;5094803;28;20466;-82
2022/12/31 08:10:45;;;;;;;4.23;3.60;;;;;;;-143.84;37.89;45060.50;5094292;28;20428;-82
2022/12/31 08:13:13;;;;;;;4.53;3.63;;;;;;;-143.84;36.96;45045.25;5094843;28;20432;-82
2022/12/31 08:15:41;;;;;;;5.33;4.37;;;;;;;-143.84;37.11;45045.25;5094442;28;20481;-82
2022/12/31 08:18:11;;;;;;;4.40;3.40;;;;;;;-143.84;36.83;45073.81;5094414;28;20432;-82
2022/12/31 08:20:47;;;;;;;3.87;3.50;;;;;;;-143.84;36.53;45041.44;5094565;28;20489;-82
2022/12/31 08:23:24;;;;;;;5.20;4.70;;;;;;;-143.84;36.07;45068.13;5094035;28;20424;-82
2022/12/31 08:26:07;;;;;;;4.67;4.37;;;;;;;-143.84;35.90;45035.75;5093982;28;20432;-82
2022/12/31 08:28:55;;;;;;;8.93;6.03;;;;;;;-143.84;36.11;45033.84;5094209;28;20432;-82
2022/12/31 08:31:29;;;;;;;8.90;5.33;;;;;;;-143.84;36.63;45073.81;5093745;28;20792;-84
2022/12/31 08:34:07;;;;;;;9.33;6.27;;;;;;;-143.84;35.43;45043.34;5093837;28;20412;-84
2022/12/31 08:36:45;;;;;;;5.93;5.33;;;;;;;-143.84;35.04;45052.88;5093937;28;20431;-83
2022/12/31 08:39:23;;;;;;;6.90;5.23;;;;;;;-143.84;34.93;45049.06;5093867;28;20531;-82
2022/12/31 08:41:53;;;;;;;7.30;4.93;;;;;;;-143.84;34.37;45047.16;5093982;28;21012;-81
2022/12/31 08:44:31;;;;;;;6.43;4.67;;;;;;;-143.84;34.26;45041.44;5093841;28;20493;-82
2022/12/31 08:47:09;;;;;;;5.53;4.57;;;;;;;-143.84;33.59;45041.44;5093704;28;20522;-82
2022/12/31 08:49:38;;;;;;;4.33;3.93;;;;;;;-143.84;33.94;45035.75;5093917;28;20438;-82
2022/12/31 08:52:15;;;;;;;4.80;4.40;;;;;;;-143.84;34.10;45049.06;5093957;28;20962;-82
2022/12/31 08:54:43;;;;;;;4.57;4.13;;;;;;;-143.84;33.43;45039.53;5093572;28;20428;-82
2022/12/31 08:57:18;;;;;;;4.43;3.80;;;;;;;-143.84;33.85;45026.22;5093321;28;20541;-82
2022/12/31 08:59:53;;;;;;;7.00;4.60;;;;;;;-143.84;33.81;45005.28;5093542;28;20428;-82
2022/12/31 09:02:40;;;;;;;5.27;4.13;;;;;;;-143.84;34.06;45037.66;5094595;28;20423;-83
2022/12/31 09:05:19;;;;;;;4.87;4.47;;;;;;;-143.84;34.06;45033.84;5094390;28;20878;-84
2022/12/31 09:07:58;;;;;;;10.47;4.90;;;;;;;-143.84;34.28;45018.59;5094250;28;20562;-84
2022/12/31 09:10:32;;;;;;;6.00;4.77;;;;;;;-143.84;34.14;45018.59;5096807;28;20428;-84
2022/12/31 09:13:08;;;;;;;5.27;4.63;;;;;;;-143.84;33.86;45050.97;5099705;28;20452;-84
2022/12/31 09:15:41;;;;;;;8.60;5.60;;;;;;;-143.84;33.89;45020.50;5098965;28;20424;-84
2022/12/31 09:18:09;;;;;;;6.13;5.60;;;;;;;-143.84;34.10;45035.75;5099114;28;20488;-84
2022/12/31 09:20:39;;;;;;;5.40;4.90;;;;;;;-143.84;33.76;45037.66;5098943;28;20489;-84
2022/12/31 09:23:07;;;;;;;6.33;4.63;;;;;;;-143.84;33.66;45071.91;5094737;28;20428;-82
2022/12/31 09:25:38;;;;;;;5.70;4.40;;;;;;;-143.84;34.14;45024.31;5093883;28;20428;-82
2022/12/31 09:28:14;;;;;;;5.20;4.57;;;;;;;-143.84;33.63;45033.84;5094474;28;20460;-82
2022/12/31 09:30:51;;;;;;;8.90;5.30;;;;;;;-143.84;33.46;45030.03;5094106;28;20857;-83
2022/12/31 09:33:34;;;;;;;9.63;5.03;;;;;;;-143.84;33.57;45066.22;5093792;28;20978;-83
2022/12/31 09:36:07;;;;;;;9.30;5.57;;;;;;;-143.84;34.01;45018.59;5093934;28;20935;-83
2022/12/31 09:38:41;;;;;;;8.57;5.40;;;;;;;-143.84;33.83;45050.97;5094077;28;20408;-83
2022/12/31 09:41:24;;;;;;;8.00;4.93;;;;;;;-143.84;33.37;45026.22;5094341;28;20443;-83
2022/12/31 09:44:29;;;;;;;8.37;4.77;;;;;;;-143.84;33.63;45054.78;5094209;28;20436;-83
2022/12/31 09:47:27;;;;;;;5.97;5.37;;;;;;;-143.84;33.71;45035.75;5094111;28;20528;-83
2022/12/31 09:50:21;;;;;;;4.70;4.30;;;;;;;-143.84;33.85;45041.44;5093898;28;21281;-83
2022/12/31 09:53:04;;;;;;;6.23;5.03;;;;;;;-143.84;34.10;45026.22;5091472;28;20443;-83
2022/12/31 09:55:37;;;;;;;6.20;4.63;;;;;;;-143.84;33.56;45054.78;5093640;28;20837;-82
2022/12/31 09:58:19;;;;;;;4.87;4.37;;;;;;;-143.84;33.93;45035.75;5093171;28;20977;-83
2022/12/31 10:00:52;;;;;;;4.93;4.53;;;;;;;-143.84;33.95;45043.34;5093338;28;20947;-82
2022/12/31 10:03:38;;;;;;;7.23;3.80;;;;;;;-143.84;33.80;45037.66;5093246;28;20869;-83
2022/12/31 10:06:21;;;;;;;6.33;4.80;;;;;;;-143.84;33.54;45049.06;5093618;28;20424;-83
2022/12/31 10:12:20;;;;;;;4.23;3.83;;;;;;;-143.84;33.08;45056.69;5110963;27;20541;-83
2022/12/31 10:15:02;;;;;;;4.40;4.10;;;;;;;-143.84;33.15;45024.31;5110544;28;20929;-83
2022/12/31 10:17:47;;;;;;;4.53;2.97;;;;;;;-143.84;32.52;45005.28;5110673;28;20424;-83
2022/12/31 10:20:30;;;;;;;5.03;2.90;;;;;;;-143.84;32.14;45010.97;5110182;28;20439;-82
2022/12/31 10:23:19;;;;;;;3.37;3.10;;;;;;;-143.84;32.47;45033.84;5109509;28;20447;-78
2022/12/31 10:26:15;;;;;;;5.23;4.10;;;;;;;-143.84;32.52;45026.22;5089891;28;20884;-78
2022/12/31 10:28:54;;;;;;;3.37;3.17;;;;;;;-143.84;32.53;45022.41;5109869;28;20829;-78
2022/12/31 10:31:37;;;;;;;3.33;3.03;;;;;;;-143.84;32.55;45020.50;5109885;28;20554;-78
2022/12/31 10:34:14;;;;;;;8.30;4.90;;;;;;;-143.84;32.30;45014.78;5110179;28;20435;-78
2022/12/31 10:36:54;;;;;;;3.30;3.10;;;;;;;-143.84;32.15;45056.69;5109855;28;20506;-78
2022/12/31 10:39:34;;;;;;;4.37;3.97;;;;;;;-143.84;32.84;45012.88;5109952;28;20500;-78
2022/12/31 10:42:28;;;;;;;6.17;4.30;;;;;;;-143.84;32.68;45028.13;5109825;28;20810;-78
2022/12/31 10:45:30;;;;;;;11.40;4.93;;;;;;;-143.84;32.59;45026.22;5068515;28;20984;-78
2022/12/31 10:49:00;;;;;;;4.43;4.03;;;;;;;-143.84;32.23;45028.13;5109431;28;20483;-81
2022/12/31 10:52:01;;;;;;;5.00;4.50;;;;;;;-143.84;32.71;45052.88;5006874;28;20494;-81
2022/12/31 10:54:59;;;;;;;6.20;5.60;;;;;;;-143.84;32.96;45033.84;5059284;28;20951;-81
2022/12/31 10:57:58;;;;;;;12.73;5.03;;;;;;;-143.84;33.05;45047.16;5108220;28;20436;-81
2022/12/31 11:00:31;;;;;;;8.80;4.90;;;;;;;-143.84;33.49;45030.03;5107971;28;20838;-81
2022/12/31 11:03:40;;;;;;;9.60;6.13;;;;;;;-143.84;33.16;45020.50;5109877;28;20861;-81
2022/12/31 11:06:45;;;;;;;10.27;7.00;;;;;;;-143.84;33.71;45035.75;5109247;28;20943;-83
2022/12/31 11:09:48;;;;;;;14.70;7.00;;;;;;;-143.84;33.58;45030.03;5108915;28;20450;-82
2022/12/31 11:12:35;;;;;;;9.90;7.17;;;;;;;-143.84;33.36;45020.50;5109326;28;20468;-83
2022/12/31 11:15:47;;;;;;;8.40;7.10;;;;;;;-143.84;33.26;45045.25;5109449;28;20435;-83
2022/12/31 11:18:26;;;;;;;13.23;7.00;;;;;;;-143.84;33.54;45039.53;5079089;28;20469;-83
2022/12/31 11:21:07;;;;;;;10.73;7.10;;;;;;;-143.84;33.28;45031.94;5110200;28;20467;-83
2022/12/31 11:23:43;;;;;;;12.00;8.93;;;;;;;-143.84;33.81;45020.50;5096886;28;20913;-83
2022/12/31 11:26:23;;;;;;;8.23;7.13;;;;;;;-143.84;33.95;45030.03;5097512;28;20493;-83
2022/12/31 11:29:28;;;;;;;12.33;8.03;;;;;;;-143.84;33.57;45049.06;5096699;28;20436;-83
2022/12/31 11:32:11;;;;;;;9.20;7.77;;;;;;;-143.84;33.65;45030.03;5093300;28;20537;-83
2022/12/31 11:35:08;;;;;;;12.93;9.20;;;;;;;-143.84;34.22;45009.09;5096556;28;20428;-83
2022/12/31 11:37:45;;;;;;;8.07;7.27;;;;;;;-143.84;33.76;45026.22;5095763;28;20493;-79
2022/12/31 11:40:28;;;;;;;12.50;7.87;;;;;;;-143.84;33.06;45033.84;5095084;28;20447;-79
2022/12/31 11:42:58;;;;;;;8.70;7.80;;;;;;;-143.84;33.80;45022.41;5094722;28;20432;-79
2022/12/31 11:45:44;;;;;;;9.97;8.90;;;;;;;-143.84;33.53;45035.75;5094972;28;20428;-79
2022/12/31 11:48:21;;;;;;;12.23;8.77;;;;;;;-143.84;33.94;45041.44;5094549;28;20428;-79
2022/12/31 11:51:02;;;;;;;18.83;9.53;;;;;;;-143.84;34.42;45041.44;5094966;28;20520;-83
2022/12/31 11:53:44;;;;;;;10.67;9.17;;;;;;;-143.84;34.41;45056.69;5095339;28;20988;-84
2022/12/31 11:56:17;;;;;;;10.27;8.47;;;;;;;-143.84;34.34;45033.84;5095179;28;20424;-83
2022/12/31 11:58:48;;;;;;;34.53;12.90;;;;;;;-143.84;34.90;45047.16;5094967;28;20428;-83
2022/12/31 12:01:20;;;;;;;19.97;9.27;;;;;;;-143.84;34.79;45018.59;5094831;28;20502;-82